sensor_id;sensor_type;location;lat;lon;timestamp;temperature;humidity
53410;DHT22;66590;50.734;4.246;2023-06-22T00:00:09;21.10;99.90
53410;DHT22;66590;50.734;4.246;2023-06-22T00:02:38;21.10;99.90
53410;DHT22;66590;50.734;4.246;2023-06-22T00:05:06;21.10;99.90
53410;DHT22;66590;50.734;4.246;2023-06-22T00:07:33;21.10;99.90
53410;DHT22;66590;50.734;4.246;2023-06-22T00:10:00;21.10;99.90
53410;DHT22;66590;50.734;4.246;2023-06-22T00:12:30;21.10;99.90
53410;DHT22;66590;50.734;4.246;2023-06-22T00:14:57;21.10;99.90
53410;DHT22;66590;50.734;4.246;2023-06-22T00:17:24;21.20;99.90
53410;DHT22;66590;50.734;4.246;2023-06-22T00:19:53;21.10;99.90
53410;DHT22;66590;50.734;4.246;2023-06-22T00:22:21;20.90;99.90
53410;DHT22;66590;50.734;4.246;2023-06-22T00:24:48;20.90;99.90
53410;DHT22;66590;50.734;4.246;2023-06-22T00:27:16;20.90;99.90
53410;DHT22;66590;50.734;4.246;2023-06-22T00:29:43;20.90;99.90
53410;DHT22;66590;50.734;4.246;2023-06-22T00:32:10;21.00;99.90
53410;DHT22;66590;50.734;4.246;2023-06-22T00:34:37;21.00;99.90
53410;DHT22;66590;50.734;4.246;2023-06-22T00:37:05;21.10;99.90
53410;DHT22;66590;50.734;4.246;2023-06-22T00:39:32;21.10;99.90
53410;DHT22;66590;50.734;4.246;2023-06-22T00:42:00;21.00;99.90
53410;DHT22;66590;50.734;4.246;2023-06-22T00:44:27;20.90;99.90
53410;DHT22;66590;50.734;4.246;2023-06-22T00:46:55;20.90;99.90
53410;DHT22;66590;50.734;4.246;2023-06-22T00:49:22;21.00;99.90
53410;DHT22;66590;50.734;4.246;2023-06-22T00:51:49;21.10;99.90
53410;DHT22;66590;50.734;4.246;2023-06-22T00:54:18;21.10;99.90
53410;DHT22;66590;50.734;4.246;2023-06-22T00:56:45;21.10;99.90
53410;DHT22;66590;50.734;4.246;2023-06-22T00:59:12;21.10;99.90
53410;DHT22;66590;50.734;4.246;2023-06-22T01:01:40;21.10;99.90
53410;DHT22;66590;50.734;4.246;2023-06-22T01:04:07;21.10;99.90
53410;DHT22;66590;50.734;4.246;2023-06-22T01:06:38;21.00;99.90
53410;DHT22;66590;50.734;4.246;2023-06-22T01:09:14;21.00;99.90
53410;DHT22;66590;50.734;4.246;2023-06-22T01:11:44;21.10;99.90
53410;DHT22;66590;50.734;4.246;2023-06-22T01:14:20;21.10;99.90
53410;DHT22;66590;50.734;4.246;2023-06-22T01:16:51;21.10;99.90
53410;DHT22;66590;50.734;4.246;2023-06-22T01:19:35;21.00;99.90
53410;DHT22;66590;50.734;4.246;2023-06-22T01:22:06;21.00;99.90
53410;DHT22;66590;50.734;4.246;2023-06-22T01:24:41;21.00;99.90
53410;DHT22;66590;50.734;4.246;2023-06-22T01:27:21;20.90;99.90
53410;DHT22;66590;50.734;4.246;2023-06-22T01:29:56;20.90;99.90
53410;DHT22;66590;50.734;4.246;2023-06-22T01:32:24;20.90;99.90
53410;DHT22;66590;50.734;4.246;2023-06-22T01:34:52;20.80;99.90
53410;DHT22;66590;50.734;4.246;2023-06-22T01:37:19;20.90;99.90
53410;DHT22;66590;50.734;4.246;2023-06-22T01:39:50;21.00;99.90
53410;DHT22;66590;50.734;4.246;2023-06-22T01:42:18;21.00;99.90
53410;DHT22;66590;50.734;4.246;2023-06-22T01:44:46;20.90;99.90
53410;DHT22;66590;50.734;4.246;2023-06-22T01:47:15;20.90;99.90
53410;DHT22;66590;50.734;4.246;2023-06-22T01:49:42;20.80;99.90
53410;DHT22;66590;50.734;4.246;2023-06-22T01:52:10;20.90;99.90
53410;DHT22;66590;50.734;4.246;2023-06-22T01:54:39;20.80;99.90
53410;DHT22;66590;50.734;4.246;2023-06-22T01:57:07;20.80;99.90
53410;DHT22;66590;50.734;4.246;2023-06-22T01:59:37;20.80;99.90
53410;DHT22;66590;50.734;4.246;2023-06-22T02:02:07;20.80;99.90
53410;DHT22;66590;50.734;4.246;2023-06-22T02:04:42;20.70;99.90
53410;DHT22;66590;50.734;4.246;2023-06-22T02:07:13;20.60;99.90
53410;DHT22;66590;50.734;4.246;2023-06-22T02:09:42;20.60;99.90
53410;DHT22;66590;50.734;4.246;2023-06-22T02:12:13;20.50;99.90
53410;DHT22;66590;50.734;4.246;2023-06-22T02:14:44;20.60;99.90
53410;DHT22;66590;50.734;4.246;2023-06-22T02:17:12;20.50;99.90
53410;DHT22;66590;50.734;4.246;2023-06-22T02:19:42;20.50;99.90
53410;DHT22;66590;50.734;4.246;2023-06-22T02:22:09;20.50;99.90
53410;DHT22;66590;50.734;4.246;2023-06-22T02:24:37;20.60;99.90
53410;DHT22;66590;50.734;4.246;2023-06-22T02:27:04;20.70;99.90
53410;DHT22;66590;50.734;4.246;2023-06-22T02:29:34;20.70;99.90
53410;DHT22;66590;50.734;4.246;2023-06-22T02:32:02;20.60;99.90
53410;DHT22;66590;50.734;4.246;2023-06-22T02:34:29;20.60;99.90
53410;DHT22;66590;50.734;4.246;2023-06-22T02:36:58;20.60;99.90
53410;DHT22;66590;50.734;4.246;2023-06-22T02:39:26;20.70;99.90
53410;DHT22;66590;50.734;4.246;2023-06-22T02:41:54;20.70;99.90
53410;DHT22;66590;50.734;4.246;2023-06-22T02:44:21;20.70;99.90
53410;DHT22;66590;50.734;4.246;2023-06-22T02:46:49;20.80;99.90
53410;DHT22;66590;50.734;4.246;2023-06-22T02:49:16;20.80;99.90
53410;DHT22;66590;50.734;4.246;2023-06-22T02:51:46;20.80;99.90
53410;DHT22;66590;50.734;4.246;2023-06-22T02:54:15;20.80;99.90
53410;DHT22;66590;50.734;4.246;2023-06-22T02:56:45;20.80;99.90
53410;DHT22;66590;50.734;4.246;2023-06-22T02:59:12;20.80;99.90
53410;DHT22;66590;50.734;4.246;2023-06-22T03:01:40;20.80;99.90
53410;DHT22;66590;50.734;4.246;2023-06-22T03:04:08;20.60;99.90
53410;DHT22;66590;50.734;4.246;2023-06-22T03:06:36;20.60;99.90
53410;DHT22;66590;50.734;4.246;2023-06-22T03:09:04;20.50;99.90
53410;DHT22;66590;50.734;4.246;2023-06-22T03:11:34;20.60;99.90
53410;DHT22;66590;50.734;4.246;2023-06-22T03:14:01;20.50;99.90
53410;DHT22;66590;50.734;4.246;2023-06-22T03:16:29;20.50;99.90
53410;DHT22;66590;50.734;4.246;2023-06-22T03:18:59;20.60;99.90
53410;DHT22;66590;50.734;4.246;2023-06-22T03:21:28;20.50;99.90
53410;DHT22;66590;50.734;4.246;2023-06-22T03:23:55;20.50;99.90
53410;DHT22;66590;50.734;4.246;2023-06-22T03:26:23;20.50;99.90
53410;DHT22;66590;50.734;4.246;2023-06-22T03:28:52;20.50;99.90
53410;DHT22;66590;50.734;4.246;2023-06-22T03:31:19;20.60;99.90
53410;DHT22;66590;50.734;4.246;2023-06-22T03:33:46;20.50;99.90
53410;DHT22;66590;50.734;4.246;2023-06-22T03:36:13;20.60;99.90
53410;DHT22;66590;50.734;4.246;2023-06-22T03:38:41;20.60;99.90
53410;DHT22;66590;50.734;4.246;2023-06-22T03:41:09;20.70;99.90
53410;DHT22;66590;50.734;4.246;2023-06-22T03:43:36;20.70;99.90
53410;DHT22;66590;50.734;4.246;2023-06-22T03:46:05;20.70;99.90
53410;DHT22;66590;50.734;4.246;2023-06-22T03:48:35;20.60;99.90
53410;DHT22;66590;50.734;4.246;2023-06-22T03:51:03;20.50;99.90
53410;DHT22;66590;50.734;4.246;2023-06-22T03:53:30;20.50;99.90
53410;DHT22;66590;50.734;4.246;2023-06-22T03:55:58;20.50;99.90
53410;DHT22;66590;50.734;4.246;2023-06-22T03:58:25;20.50;99.90
53410;DHT22;66590;50.734;4.246;2023-06-22T04:00:53;20.50;99.90
53410;DHT22;66590;50.734;4.246;2023-06-22T04:03:21;20.50;99.90
53410;DHT22;66590;50.734;4.246;2023-06-22T04:05:49;20.40;99.90
53410;DHT22;66590;50.734;4.246;2023-06-22T04:08:17;20.30;99.90
53410;DHT22;66590;50.734;4.246;2023-06-22T04:10:44;20.30;99.90
53410;DHT22;66590;50.734;4.246;2023-06-22T04:13:12;20.50;99.90
53410;DHT22;66590;50.734;4.246;2023-06-22T04:15:39;20.60;99.90
53410;DHT22;66590;50.734;4.246;2023-06-22T04:18:09;20.70;99.90
53410;DHT22;66590;50.734;4.246;2023-06-22T04:20:37;20.80;99.90
53410;DHT22;66590;50.734;4.246;2023-06-22T04:23:04;21.00;99.90
53410;DHT22;66590;50.734;4.246;2023-06-22T04:25:32;21.00;99.90
53410;DHT22;66590;50.734;4.246;2023-06-22T04:27:59;20.80;99.90
53410;DHT22;66590;50.734;4.246;2023-06-22T04:30:26;20.70;99.90
53410;DHT22;66590;50.734;4.246;2023-06-22T04:32:54;20.70;99.90
53410;DHT22;66590;50.734;4.246;2023-06-22T04:35:21;20.70;99.90
53410;DHT22;66590;50.734;4.246;2023-06-22T04:37:50;20.80;99.90
53410;DHT22;66590;50.734;4.246;2023-06-22T04:40:18;20.80;99.90
53410;DHT22;66590;50.734;4.246;2023-06-22T04:42:45;20.90;99.90
53410;DHT22;66590;50.734;4.246;2023-06-22T04:45:15;20.90;99.90
53410;DHT22;66590;50.734;4.246;2023-06-22T04:47:44;20.90;99.90
53410;DHT22;66590;50.734;4.246;2023-06-22T04:50:11;20.90;99.90
53410;DHT22;66590;50.734;4.246;2023-06-22T04:52:39;21.00;99.90
53410;DHT22;66590;50.734;4.246;2023-06-22T04:55:08;21.00;99.90
53410;DHT22;66590;50.734;4.246;2023-06-22T04:57:36;21.00;99.90
53410;DHT22;66590;50.734;4.246;2023-06-22T05:00:04;21.00;99.90
53410;DHT22;66590;50.734;4.246;2023-06-22T05:02:31;21.00;99.90
53410;DHT22;66590;50.734;4.246;2023-06-22T05:04:58;21.00;99.90
53410;DHT22;66590;50.734;4.246;2023-06-22T05:07:26;20.80;99.90
53410;DHT22;66590;50.734;4.246;2023-06-22T05:09:54;20.80;99.90
53410;DHT22;66590;50.734;4.246;2023-06-22T05:12:22;20.80;99.90
53410;DHT22;66590;50.734;4.246;2023-06-22T05:14:49;20.70;99.90
53410;DHT22;66590;50.734;4.246;2023-06-22T05:17:17;20.70;99.90
53410;DHT22;66590;50.734;4.246;2023-06-22T05:19:44;20.60;99.90
53410;DHT22;66590;50.734;4.246;2023-06-22T05:22:14;20.60;99.90
53410;DHT22;66590;50.734;4.246;2023-06-22T05:24:41;20.60;99.90
53410;DHT22;66590;50.734;4.246;2023-06-22T05:27:08;20.60;99.90
53410;DHT22;66590;50.734;4.246;2023-06-22T05:29:37;20.70;99.90
53410;DHT22;66590;50.734;4.246;2023-06-22T05:32:06;20.70;99.90
53410;DHT22;66590;50.734;4.246;2023-06-22T05:34:33;20.70;99.90
53410;DHT22;66590;50.734;4.246;2023-06-22T05:37:00;20.60;99.90
53410;DHT22;66590;50.734;4.246;2023-06-22T05:39:27;20.70;99.90
53410;DHT22;66590;50.734;4.246;2023-06-22T05:41:54;20.70;99.90
53410;DHT22;66590;50.734;4.246;2023-06-22T05:44:22;20.70;99.90
53410;DHT22;66590;50.734;4.246;2023-06-22T05:46:50;20.70;99.90
53410;DHT22;66590;50.734;4.246;2023-06-22T05:49:17;20.80;99.90
53410;DHT22;66590;50.734;4.246;2023-06-22T05:51:45;20.80;99.90
53410;DHT22;66590;50.734;4.246;2023-06-22T05:54:12;20.70;99.90
53410;DHT22;66590;50.734;4.246;2023-06-22T05:56:39;20.70;99.90
53410;DHT22;66590;50.734;4.246;2023-06-22T05:59:07;20.70;99.90
53410;DHT22;66590;50.734;4.246;2023-06-22T06:01:34;20.70;99.90
53410;DHT22;66590;50.734;4.246;2023-06-22T06:04:04;20.70;99.90
53410;DHT22;66590;50.734;4.246;2023-06-22T06:06:31;20.70;99.90
53410;DHT22;66590;50.734;4.246;2023-06-22T06:08:59;20.60;99.90
53410;DHT22;66590;50.734;4.246;2023-06-22T06:11:26;20.50;99.90
53410;DHT22;66590;50.734;4.246;2023-06-22T06:13:53;20.50;99.90
53410;DHT22;66590;50.734;4.246;2023-06-22T06:16:20;20.60;99.90
53410;DHT22;66590;50.734;4.246;2023-06-22T06:18:47;20.70;99.90
53410;DHT22;66590;50.734;4.246;2023-06-22T06:21:16;20.70;99.90
53410;DHT22;66590;50.734;4.246;2023-06-22T06:23:46;20.80;99.90
53410;DHT22;66590;50.734;4.246;2023-06-22T06:26:16;20.90;99.90
53410;DHT22;66590;50.734;4.246;2023-06-22T06:28:44;21.10;99.90
53410;DHT22;66590;50.734;4.246;2023-06-22T06:31:12;21.10;99.90
53410;DHT22;66590;50.734;4.246;2023-06-22T06:33:39;21.20;99.90
53410;DHT22;66590;50.734;4.246;2023-06-22T06:36:10;21.40;99.90
53410;DHT22;66590;50.734;4.246;2023-06-22T06:38:38;21.60;99.90
53410;DHT22;66590;50.734;4.246;2023-06-22T06:41:09;21.50;99.90
53410;DHT22;66590;50.734;4.246;2023-06-22T06:43:36;21.60;99.90
53410;DHT22;66590;50.734;4.246;2023-06-22T06:46:04;21.70;99.90
53410;DHT22;66590;50.734;4.246;2023-06-22T06:48:31;21.70;99.90
53410;DHT22;66590;50.734;4.246;2023-06-22T06:50:59;21.90;99.90
53410;DHT22;66590;50.734;4.246;2023-06-22T06:53:26;21.90;99.90
53410;DHT22;66590;50.734;4.246;2023-06-22T06:55:55;22.10;99.90
53410;DHT22;66590;50.734;4.246;2023-06-22T06:58:22;22.20;99.90
53410;DHT22;66590;50.734;4.246;2023-06-22T07:00:50;22.10;99.90
53410;DHT22;66590;50.734;4.246;2023-06-22T07:03:17;22.20;99.90
53410;DHT22;66590;50.734;4.246;2023-06-22T07:05:44;22.20;99.90
53410;DHT22;66590;50.734;4.246;2023-06-22T07:08:12;22.10;99.90
53410;DHT22;66590;50.734;4.246;2023-06-22T07:10:39;22.50;99.90
53410;DHT22;66590;50.734;4.246;2023-06-22T07:13:08;23.00;99.90
53410;DHT22;66590;50.734;4.246;2023-06-22T07:15:35;23.40;99.90
53410;DHT22;66590;50.734;4.246;2023-06-22T07:18:05;23.90;99.90
53410;DHT22;66590;50.734;4.246;2023-06-22T07:20:32;23.90;99.90
53410;DHT22;66590;50.734;4.246;2023-06-22T07:22:59;23.90;99.90
53410;DHT22;66590;50.734;4.246;2023-06-22T07:25:29;23.70;99.90
53410;DHT22;66590;50.734;4.246;2023-06-22T07:28:00;23.50;99.90
53410;DHT22;66590;50.734;4.246;2023-06-22T07:30:30;23.30;99.90
53410;DHT22;66590;50.734;4.246;2023-06-22T07:32:58;23.20;99.90
53410;DHT22;66590;50.734;4.246;2023-06-22T07:35:26;23.10;99.90
53410;DHT22;66590;50.734;4.246;2023-06-22T07:37:53;23.10;99.90
53410;DHT22;66590;50.734;4.246;2023-06-22T07:40:20;23.00;99.90
53410;DHT22;66590;50.734;4.246;2023-06-22T07:42:48;22.80;99.90
53410;DHT22;66590;50.734;4.246;2023-06-22T07:45:18;22.80;99.90
53410;DHT22;66590;50.734;4.246;2023-06-22T07:47:47;22.80;99.90
53410;DHT22;66590;50.734;4.246;2023-06-22T07:50:14;22.80;99.90
53410;DHT22;66590;50.734;4.246;2023-06-22T07:52:42;22.80;99.90
53410;DHT22;66590;50.734;4.246;2023-06-22T07:55:09;22.70;99.90
53410;DHT22;66590;50.734;4.246;2023-06-22T07:57:37;22.60;99.90
53410;DHT22;66590;50.734;4.246;2023-06-22T08:00:05;22.60;99.90
53410;DHT22;66590;50.734;4.246;2023-06-22T08:02:33;22.70;99.90
53410;DHT22;66590;50.734;4.246;2023-06-22T08:05:02;22.60;99.90
53410;DHT22;66590;50.734;4.246;2023-06-22T08:07:47;22.50;99.90
53410;DHT22;66590;50.734;4.246;2023-06-22T08:10:15;22.60;99.90
53410;DHT22;66590;50.734;4.246;2023-06-22T08:12:42;22.70;99.90
53410;DHT22;66590;50.734;4.246;2023-06-22T08:15:10;22.80;99.90
53410;DHT22;66590;50.734;4.246;2023-06-22T08:17:37;22.70;99.90
53410;DHT22;66590;50.734;4.246;2023-06-22T08:20:08;22.70;99.90
53410;DHT22;66590;50.734;4.246;2023-06-22T08:22:35;22.50;99.90
53410;DHT22;66590;50.734;4.246;2023-06-22T08:25:03;22.50;99.90
53410;DHT22;66590;50.734;4.246;2023-06-22T08:27:31;22.40;99.90
53410;DHT22;66590;50.734;4.246;2023-06-22T08:29:59;22.30;99.90
53410;DHT22;66590;50.734;4.246;2023-06-22T08:32:27;22.30;99.90
53410;DHT22;66590;50.734;4.246;2023-06-22T08:34:55;22.30;99.90
53410;DHT22;66590;50.734;4.246;2023-06-22T08:37:24;22.30;99.90
53410;DHT22;66590;50.734;4.246;2023-06-22T08:39:51;22.30;99.90
53410;DHT22;66590;50.734;4.246;2023-06-22T08:42:18;22.30;99.90
53410;DHT22;66590;50.734;4.246;2023-06-22T08:44:46;22.20;99.90
53410;DHT22;66590;50.734;4.246;2023-06-22T08:47:13;22.20;99.90
53410;DHT22;66590;50.734;4.246;2023-06-22T08:49:40;22.30;99.90
53410;DHT22;66590;50.734;4.246;2023-06-22T08:52:08;22.30;99.90
53410;DHT22;66590;50.734;4.246;2023-06-22T08:54:37;22.30;99.90
53410;DHT22;66590;50.734;4.246;2023-06-22T08:57:05;22.40;99.90
53410;DHT22;66590;50.734;4.246;2023-06-22T08:59:32;22.40;99.90
53410;DHT22;66590;50.734;4.246;2023-06-22T09:01:59;22.50;99.90
53410;DHT22;66590;50.734;4.246;2023-06-22T09:04:29;22.50;99.90
53410;DHT22;66590;50.734;4.246;2023-06-22T09:06:56;22.50;99.90
53410;DHT22;66590;50.734;4.246;2023-06-22T09:09:23;22.50;99.90
53410;DHT22;66590;50.734;4.246;2023-06-22T09:11:52;22.40;99.90
53410;DHT22;66590;50.734;4.246;2023-06-22T09:14:19;22.40;99.90
53410;DHT22;66590;50.734;4.246;2023-06-22T09:16:47;22.30;99.90
53410;DHT22;66590;50.734;4.246;2023-06-22T09:19:14;22.20;99.90
53410;DHT22;66590;50.734;4.246;2023-06-22T09:21:41;22.10;99.90
53410;DHT22;66590;50.734;4.246;2023-06-22T09:24:09;22.00;99.90
53410;DHT22;66590;50.734;4.246;2023-06-22T09:26:37;22.00;99.90
53410;DHT22;66590;50.734;4.246;2023-06-22T09:29:06;21.80;99.90
53410;DHT22;66590;50.734;4.246;2023-06-22T09:31:33;21.70;99.90
53410;DHT22;66590;50.734;4.246;2023-06-22T09:34:00;21.70;99.90
53410;DHT22;66590;50.734;4.246;2023-06-22T09:36:28;21.70;99.90
53410;DHT22;66590;50.734;4.246;2023-06-22T09:38:55;21.40;99.90
53410;DHT22;66590;50.734;4.246;2023-06-22T09:41:22;21.00;99.90
53410;DHT22;66590;50.734;4.246;2023-06-22T09:43:50;20.70;99.90
53410;DHT22;66590;50.734;4.246;2023-06-22T09:46:24;20.40;99.90
53410;DHT22;66590;50.734;4.246;2023-06-22T09:48:51;20.10;99.90
53410;DHT22;66590;50.734;4.246;2023-06-22T09:51:19;20.00;99.90
53410;DHT22;66590;50.734;4.246;2023-06-22T09:53:48;19.90;99.90
53410;DHT22;66590;50.734;4.246;2023-06-22T09:56:16;19.80;99.90
53410;DHT22;66590;50.734;4.246;2023-06-22T09:58:43;19.80;99.90
53410;DHT22;66590;50.734;4.246;2023-06-22T10:01:11;19.80;99.90
53410;DHT22;66590;50.734;4.246;2023-06-22T10:03:39;19.80;99.90
53410;DHT22;66590;50.734;4.246;2023-06-22T10:06:07;19.80;99.90
53410;DHT22;66590;50.734;4.246;2023-06-22T10:08:35;19.80;99.90
53410;DHT22;66590;50.734;4.246;2023-06-22T10:11:03;19.80;99.90
53410;DHT22;66590;50.734;4.246;2023-06-22T10:13:30;19.80;99.90
53410;DHT22;66590;50.734;4.246;2023-06-22T10:15:57;19.80;99.90
53410;DHT22;66590;50.734;4.246;2023-06-22T10:18:24;19.80;99.90
53410;DHT22;66590;50.734;4.246;2023-06-22T10:20:53;19.70;99.90
53410;DHT22;66590;50.734;4.246;2023-06-22T10:23:23;19.70;99.90
53410;DHT22;66590;50.734;4.246;2023-06-22T10:25:50;19.60;99.90
53410;DHT22;66590;50.734;4.246;2023-06-22T10:28:18;19.60;99.90
53410;DHT22;66590;50.734;4.246;2023-06-22T10:30:45;19.50;99.90
53410;DHT22;66590;50.734;4.246;2023-06-22T10:33:12;19.50;99.90
53410;DHT22;66590;50.734;4.246;2023-06-22T10:35:39;19.60;99.90
53410;DHT22;66590;50.734;4.246;2023-06-22T10:38:08;19.70;99.90
53410;DHT22;66590;50.734;4.246;2023-06-22T10:40:35;19.70;99.90
53410;DHT22;66590;50.734;4.246;2023-06-22T10:43:02;19.70;99.90
53410;DHT22;66590;50.734;4.246;2023-06-22T10:45:29;19.80;99.90
53410;DHT22;66590;50.734;4.246;2023-06-22T10:47:57;19.80;99.90
53410;DHT22;66590;50.734;4.246;2023-06-22T10:50:25;20.00;99.90
53410;DHT22;66590;50.734;4.246;2023-06-22T10:52:54;20.10;99.90
53410;DHT22;66590;50.734;4.246;2023-06-22T10:55:26;20.20;99.90
53410;DHT22;66590;50.734;4.246;2023-06-22T10:57:55;20.30;99.90
53410;DHT22;66590;50.734;4.246;2023-06-22T11:00:22;20.30;99.90
53410;DHT22;66590;50.734;4.246;2023-06-22T11:02:50;20.40;99.90
53410;DHT22;66590;50.734;4.246;2023-06-22T11:05:17;20.20;99.90
53410;DHT22;66590;50.734;4.246;2023-06-22T11:07:44;20.10;99.90
53410;DHT22;66590;50.734;4.246;2023-06-22T11:10:13;20.20;99.90
53410;DHT22;66590;50.734;4.246;2023-06-22T11:12:42;20.20;99.90
53410;DHT22;66590;50.734;4.246;2023-06-22T11:15:09;20.30;99.90
53410;DHT22;66590;50.734;4.246;2023-06-22T11:17:37;20.30;99.90
53410;DHT22;66590;50.734;4.246;2023-06-22T11:20:05;20.40;99.90
53410;DHT22;66590;50.734;4.246;2023-06-22T11:22:33;20.20;99.90
53410;DHT22;66590;50.734;4.246;2023-06-22T11:25:01;20.20;99.90
53410;DHT22;66590;50.734;4.246;2023-06-22T11:27:28;20.30;99.90
53410;DHT22;66590;50.734;4.246;2023-06-22T11:29:57;20.30;99.90
53410;DHT22;66590;50.734;4.246;2023-06-22T11:32:24;20.40;99.90
53410;DHT22;66590;50.734;4.246;2023-06-22T11:34:52;20.50;99.90
53410;DHT22;66590;50.734;4.246;2023-06-22T11:37:19;20.50;99.90
53410;DHT22;66590;50.734;4.246;2023-06-22T11:39:46;20.30;99.90
53410;DHT22;66590;50.734;4.246;2023-06-22T11:42:26;20.40;99.90
53410;DHT22;66590;50.734;4.246;2023-06-22T11:44:53;20.30;99.90
53410;DHT22;66590;50.734;4.246;2023-06-22T11:47:22;20.20;99.90
53410;DHT22;66590;50.734;4.246;2023-06-22T11:49:49;20.30;99.90
53410;DHT22;66590;50.734;4.246;2023-06-22T11:52:16;20.30;99.90
53410;DHT22;66590;50.734;4.246;2023-06-22T11:54:43;20.30;99.90
53410;DHT22;66590;50.734;4.246;2023-06-22T11:57:11;20.20;99.90
53410;DHT22;66590;50.734;4.246;2023-06-22T11:59:38;20.10;99.90
53410;DHT22;66590;50.734;4.246;2023-06-22T12:02:05;20.10;99.90
53410;DHT22;66590;50.734;4.246;2023-06-22T12:04:34;20.20;99.90
53410;DHT22;66590;50.734;4.246;2023-06-22T12:07:02;20.00;99.90
53410;DHT22;66590;50.734;4.246;2023-06-22T12:09:29;19.90;99.90
53410;DHT22;66590;50.734;4.246;2023-06-22T12:11:56;19.90;99.90
53410;DHT22;66590;50.734;4.246;2023-06-22T12:14:24;20.00;99.90
53410;DHT22;66590;50.734;4.246;2023-06-22T12:16:51;19.80;99.90
53410;DHT22;66590;50.734;4.246;2023-06-22T12:19:20;19.80;99.90
53410;DHT22;66590;50.734;4.246;2023-06-22T12:21:51;19.80;99.90
53410;DHT22;66590;50.734;4.246;2023-06-22T12:24:18;19.70;99.90
53410;DHT22;66590;50.734;4.246;2023-06-22T12:26:49;19.70;99.90
53410;DHT22;66590;50.734;4.246;2023-06-22T12:29:19;19.50;99.90
53410;DHT22;66590;50.734;4.246;2023-06-22T12:31:46;19.50;99.90
53410;DHT22;66590;50.734;4.246;2023-06-22T12:34:14;19.50;99.90
53410;DHT22;66590;50.734;4.246;2023-06-22T12:36:41;19.50;99.90
53410;DHT22;66590;50.734;4.246;2023-06-22T12:39:12;19.50;99.90
53410;DHT22;66590;50.734;4.246;2023-06-22T12:41:40;19.40;99.90
53410;DHT22;66590;50.734;4.246;2023-06-22T12:44:07;19.40;99.90
53410;DHT22;66590;50.734;4.246;2023-06-22T12:46:34;19.20;99.90
53410;DHT22;66590;50.734;4.246;2023-06-22T12:49:06;19.20;99.90
53410;DHT22;66590;50.734;4.246;2023-06-22T12:51:40;19.10;99.90
53410;DHT22;66590;50.734;4.246;2023-06-22T12:54:07;19.00;99.90
53410;DHT22;66590;50.734;4.246;2023-06-22T12:56:36;19.00;99.90
53410;DHT22;66590;50.734;4.246;2023-06-22T12:59:04;19.00;99.90
53410;DHT22;66590;50.734;4.246;2023-06-22T13:01:31;18.80;99.90
53410;DHT22;66590;50.734;4.246;2023-06-22T13:03:59;18.90;99.90
53410;DHT22;66590;50.734;4.246;2023-06-22T13:06:26;18.80;99.90
53410;DHT22;66590;50.734;4.246;2023-06-22T13:08:53;18.70;99.90
53410;DHT22;66590;50.734;4.246;2023-06-22T13:11:23;18.70;99.90
53410;DHT22;66590;50.734;4.246;2023-06-22T13:13:51;18.70;99.90
53410;DHT22;66590;50.734;4.246;2023-06-22T13:16:18;18.70;99.90
53410;DHT22;66590;50.734;4.246;2023-06-22T13:18:46;18.70;99.90
53410;DHT22;66590;50.734;4.246;2023-06-22T13:21:13;18.70;99.90
53410;DHT22;66590;50.734;4.246;2023-06-22T13:23:40;18.70;99.90
53410;DHT22;66590;50.734;4.246;2023-06-22T13:26:07;18.70;99.90
53410;DHT22;66590;50.734;4.246;2023-06-22T13:28:34;18.70;99.90
53410;DHT22;66590;50.734;4.246;2023-06-22T13:31:02;18.70;99.90
53410;DHT22;66590;50.734;4.246;2023-06-22T13:33:30;18.70;99.90
53410;DHT22;66590;50.734;4.246;2023-06-22T13:35:57;18.70;99.90
53410;DHT22;66590;50.734;4.246;2023-06-22T13:38:24;18.70;99.90
53410;DHT22;66590;50.734;4.246;2023-06-22T13:40:51;18.60;99.90
53410;DHT22;66590;50.734;4.246;2023-06-22T13:43:18;18.70;99.90
53410;DHT22;66590;50.734;4.246;2023-06-22T13:45:45;18.80;99.90
53410;DHT22;66590;50.734;4.246;2023-06-22T13:48:13;18.70;99.90
53410;DHT22;66590;50.734;4.246;2023-06-22T13:50:41;18.70;99.90
53410;DHT22;66590;50.734;4.246;2023-06-22T13:53:08;18.60;99.90
53410;DHT22;66590;50.734;4.246;2023-06-22T13:55:35;18.70;99.90
53410;DHT22;66590;50.734;4.246;2023-06-22T13:58:02;18.70;99.90
53410;DHT22;66590;50.734;4.246;2023-06-22T14:00:29;18.80;99.90
53410;DHT22;66590;50.734;4.246;2023-06-22T14:02:57;18.80;99.90
53410;DHT22;66590;50.734;4.246;2023-06-22T14:05:25;18.80;99.90
53410;DHT22;66590;50.734;4.246;2023-06-22T14:07:52;18.80;99.90
53410;DHT22;66590;50.734;4.246;2023-06-22T14:10:19;18.80;99.90
53410;DHT22;66590;50.734;4.246;2023-06-22T14:12:46;18.80;99.90
53410;DHT22;66590;50.734;4.246;2023-06-22T14:15:13;18.80;99.90
53410;DHT22;66590;50.734;4.246;2023-06-22T14:17:40;18.80;99.90
53410;DHT22;66590;50.734;4.246;2023-06-22T14:20:08;18.70;99.90
53410;DHT22;66590;50.734;4.246;2023-06-22T14:22:36;18.70;99.90
53410;DHT22;66590;50.734;4.246;2023-06-22T14:25:05;18.70;99.90
53410;DHT22;66590;50.734;4.246;2023-06-22T14:27:32;18.80;99.90
53410;DHT22;66590;50.734;4.246;2023-06-22T14:29:59;18.80;99.90
53410;DHT22;66590;50.734;4.246;2023-06-22T14:32:27;18.80;99.90
53410;DHT22;66590;50.734;4.246;2023-06-22T14:34:55;18.80;99.90
53410;DHT22;66590;50.734;4.246;2023-06-22T14:37:22;18.70;99.90
53410;DHT22;66590;50.734;4.246;2023-06-22T14:39:50;18.60;99.90
53410;DHT22;66590;50.734;4.246;2023-06-22T14:42:17;18.60;99.90
53410;DHT22;66590;50.734;4.246;2023-06-22T14:44:44;18.60;99.90
53410;DHT22;66590;50.734;4.246;2023-06-22T14:47:11;18.60;99.90
53410;DHT22;66590;50.734;4.246;2023-06-22T14:49:38;18.50;99.90
53410;DHT22;66590;50.734;4.246;2023-06-22T14:52:06;18.60;99.90
53410;DHT22;66590;50.734;4.246;2023-06-22T14:54:33;18.70;99.90
53410;DHT22;66590;50.734;4.246;2023-06-22T14:57:01;18.80;99.90
53410;DHT22;66590;50.734;4.246;2023-06-22T14:59:29;18.90;99.90
53410;DHT22;66590;50.734;4.246;2023-06-22T15:01:56;18.90;99.90
53410;DHT22;66590;50.734;4.246;2023-06-22T15:04:23;19.00;99.90
53410;DHT22;66590;50.734;4.246;2023-06-22T15:06:50;19.00;99.90
53410;DHT22;66590;50.734;4.246;2023-06-22T15:09:17;19.00;99.90
53410;DHT22;66590;50.734;4.246;2023-06-22T15:11:44;19.10;99.90
53410;DHT22;66590;50.734;4.246;2023-06-22T15:14:13;19.10;99.90
53410;DHT22;66590;50.734;4.246;2023-06-22T15:16:41;19.20;99.90
53410;DHT22;66590;50.734;4.246;2023-06-22T15:19:08;19.30;99.90
53410;DHT22;66590;50.734;4.246;2023-06-22T15:21:35;19.30;99.90
53410;DHT22;66590;50.734;4.246;2023-06-22T15:24:02;19.50;99.90
53410;DHT22;66590;50.734;4.246;2023-06-22T15:26:29;19.40;99.90
53410;DHT22;66590;50.734;4.246;2023-06-22T15:28:56;19.40;99.90
53410;DHT22;66590;50.734;4.246;2023-06-22T15:31:25;19.50;99.90
53410;DHT22;66590;50.734;4.246;2023-06-22T15:33:52;19.50;99.90